createdAt,value
2022-09-26T00:01:39.779Z,120.40
2022-09-26T00:04:23.019Z,119.47
2022-09-26T00:06:55.375Z,120.30
2022-09-26T00:09:26.127Z,120.20
2022-09-26T00:11:54.075Z,120.40
2022-09-26T00:14:28.152Z,120.23
2022-09-26T00:16:55.918Z,120.57
2022-09-26T00:19:24.537Z,119.57
2022-09-26T00:21:51.757Z,120.07
2022-09-26T00:24:19.465Z,120.60
2022-09-26T00:26:46.925Z,120.30
2022-09-26T00:29:14.531Z,119.67
2022-09-26T00:31:45.259Z,120.27
2022-09-26T00:34:19.345Z,120.30
2022-09-26T00:36:48.565Z,120.20
2022-09-26T00:39:16.804Z,119.57
2022-09-26T00:41:45.272Z,120.33
2022-09-26T00:44:43.782Z,118.53
2022-09-26T00:47:36.073Z,120.27
2022-09-26T00:50:20.899Z,120.57
2022-09-26T00:53:18.016Z,120.77
2022-09-26T00:55:52.372Z,119.70
2022-09-26T00:58:32.940Z,120.87
2022-09-26T01:01:01.358Z,120.43
2022-09-26T01:03:31.289Z,120.23
2022-09-26T01:06:00.277Z,119.67
2022-09-26T01:08:42.734Z,120.43
2022-09-26T01:11:16.778Z,119.37
2022-09-26T01:13:46.321Z,120.10
2022-09-26T01:16:13.894Z,120.10
2022-09-26T01:18:42.088Z,119.47
2022-09-26T01:22:10.814Z,120.20
2022-09-26T01:24:52.969Z,120.27
2022-09-26T01:27:44.005Z,119.17
2022-09-26T01:30:28.702Z,119.77
2022-09-26T01:33:21.861Z,120.37
2022-09-26T01:36:12.193Z,118.30
2022-09-26T01:39:24.270Z,120.47
2022-09-26T01:42:14.329Z,120.30
2022-09-26T01:45:09.951Z,120.03
2022-09-26T01:48:05.749Z,119.47
2022-09-26T01:50:59.409Z,120.27
2022-09-26T01:53:56.262Z,120.40
2022-09-26T01:56:28.361Z,120.40
2022-09-26T01:59:11.193Z,120.97
2022-09-26T02:01:43.463Z,120.27
2022-09-26T02:04:21.170Z,119.90
2022-09-26T02:06:59.950Z,120.60
2022-09-26T02:09:53.837Z,119.57
2022-09-26T02:12:33.159Z,120.17
2022-09-26T02:15:16.536Z,119.67
2022-09-26T02:17:53.577Z,119.20
2022-09-26T02:20:43.040Z,120.77
2022-09-26T02:23:10.260Z,120.20
2022-09-26T02:25:37.709Z,120.17
2022-09-26T02:28:05.547Z,120.50
2022-09-26T02:30:32.795Z,120.37
2022-09-26T02:33:01.624Z,120.10
2022-09-26T02:35:47.615Z,120.40
2022-09-26T02:38:17.293Z,120.20
2022-09-26T02:41:48.263Z,120.47
2022-09-26T02:44:59.323Z,120.70
2022-09-26T02:47:47.151Z,120.40
2022-09-26T02:51:00.800Z,120.10
2022-09-26T02:54:15.695Z,120.53
2022-09-26T02:57:15.025Z,119.47
2022-09-26T03:00:05.685Z,121.03
2022-09-26T03:02:47.401Z,120.60
2022-09-26T03:05:23.020Z,120.67
2022-09-26T03:08:01.255Z,120.30
2022-09-26T03:10:31.236Z,119.87
2022-09-26T03:13:06.167Z,120.90
2022-09-26T03:15:37.928Z,120.20
2022-09-26T03:18:10.499Z,120.77
2022-09-26T03:20:38.532Z,120.43
2022-09-26T03:23:05.936Z,120.27
2022-09-26T03:25:33.453Z,120.50
2022-09-26T03:28:05.588Z,118.47
2022-09-26T03:30:34.708Z,119.80
2022-09-26T03:33:22.552Z,120.57
2022-09-26T03:35:50.691Z,120.17
2022-09-26T03:38:18.243Z,119.67
2022-09-26T03:40:57.784Z,121.07
2022-09-26T03:43:44.002Z,120.40
2022-09-26T03:46:12.876Z,120.73
2022-09-26T03:48:40.340Z,120.60
2022-09-26T03:51:12.228Z,120.07
2022-09-26T03:53:43.908Z,119.97
2022-09-26T03:56:18.540Z,120.77
2022-09-26T03:58:48.906Z,120.83
2022-09-26T04:01:20.512Z,120.03
2022-09-26T04:03:51.048Z,120.40
2022-09-26T04:06:20.609Z,121.03
2022-09-26T04:08:52.209Z,120.37
2022-09-26T04:11:24.398Z,120.53
2022-09-26T04:13:53.947Z,120.40
2022-09-26T04:16:25.023Z,120.30
2022-09-26T04:19:15.687Z,119.57
2022-09-26T04:21:43.443Z,120.50
2022-09-26T04:24:15.902Z,120.70
2022-09-26T04:26:44.427Z,120.50
2022-09-26T04:29:12.126Z,120.57
2022-09-26T04:31:54.340Z,120.67
2022-09-26T04:34:27.702Z,119.77
2022-09-26T04:36:56.476Z,120.30
2022-09-26T04:39:23.973Z,120.70
2022-09-26T04:41:52.333Z,120.60
2022-09-26T04:44:19.961Z,120.50
2022-09-26T04:46:48.024Z,120.80
2022-09-26T04:49:16.188Z,120.57
2022-09-26T04:51:44.099Z,120.50
2022-09-26T04:54:11.145Z,120.70
2022-09-26T04:56:41.405Z,120.87
2022-09-26T04:59:09.976Z,120.90
2022-09-26T05:01:46.470Z,120.87
2022-09-26T05:04:18.596Z,120.50
2022-09-26T05:06:46.116Z,119.27
2022-09-26T05:09:23.034Z,120.30
2022-09-26T05:12:03.442Z,120.70
2022-09-26T05:14:31.702Z,120.87
2022-09-26T05:16:59.262Z,120.10
2022-09-26T05:19:27.002Z,118.90
2022-09-26T05:22:14.333Z,119.90
2022-09-26T05:25:00.090Z,120.00
2022-09-26T05:27:27.607Z,119.57
2022-09-26T05:29:56.295Z,120.80
2022-09-26T05:32:24.742Z,119.10
2022-09-26T05:34:53.099Z,120.37
2022-09-26T05:37:21.822Z,120.20
2022-09-26T05:40:08.886Z,120.17
2022-09-26T05:42:41.016Z,120.30
2022-09-26T05:45:09.317Z,120.70
2022-09-26T05:47:37.430Z,119.97
2022-09-26T05:50:11.551Z,119.97
2022-09-26T05:52:40.601Z,120.57
2022-09-26T05:55:11.893Z,121.27
2022-09-26T05:57:58.516Z,120.40
2022-09-26T06:00:33.818Z,120.20
2022-09-26T06:03:05.023Z,119.90
2022-09-26T06:05:42.469Z,119.80
2022-09-26T06:08:17.243Z,120.10
2022-09-26T06:10:49.117Z,120.67
2022-09-26T06:13:16.495Z,120.00
2022-09-26T06:15:49.842Z,119.87
2022-09-26T06:18:17.465Z,120.30
2022-09-26T06:20:44.967Z,120.50
2022-09-26T06:23:13.387Z,120.50
2022-09-26T06:25:43.149Z,119.87
2022-09-26T06:28:11.079Z,120.37
2022-09-26T06:30:38.983Z,120.40
2022-09-26T06:33:12.767Z,120.23
2022-09-26T06:36:06.651Z,120.10
2022-09-26T06:38:38.014Z,120.50
2022-09-26T06:41:14.916Z,120.57
2022-09-26T06:43:44.887Z,120.43
2022-09-26T06:46:32.725Z,120.40
2022-09-26T06:49:14.151Z,120.23
2022-09-26T06:51:43.844Z,120.07
2022-09-26T06:54:11.404Z,119.47
2022-09-26T06:56:38.860Z,119.80
2022-09-26T06:59:06.466Z,119.80
2022-09-26T07:01:35.825Z,120.20
2022-09-26T07:04:09.629Z,119.50
2022-09-26T07:07:05.504Z,119.90
2022-09-26T07:09:33.734Z,119.73
2022-09-26T07:12:15.909Z,120.57
2022-09-26T07:14:44.405Z,120.00
2022-09-26T07:17:28.904Z,120.10
2022-09-26T07:20:20.816Z,119.40
2022-09-26T07:23:12.099Z,119.60
2022-09-26T07:25:47.230Z,119.90
2022-09-26T07:28:15.340Z,119.17
2022-09-26T07:30:46.805Z,119.83
2022-09-26T07:33:29.104Z,119.70
2022-09-26T07:36:05.006Z,119.67
2022-09-26T07:38:33.053Z,119.27
2022-09-26T07:41:01.208Z,119.77
2022-09-26T07:44:16.916Z,119.10
2022-09-26T07:46:38.702Z,119.50
2022-09-26T07:49:24.702Z,119.50
2022-09-26T07:52:11.168Z,119.00
2022-09-26T07:54:48.517Z,119.27
2022-09-26T07:57:38.781Z,118.80
2022-09-26T08:03:50.225Z,117.97
2022-09-26T08:06:34.850Z,118.27
2022-09-26T08:09:02.558Z,118.20
2022-09-26T08:11:49.006Z,118.67
2022-09-26T08:14:39.784Z,118.87
2022-09-26T08:17:18.101Z,119.50
2022-09-26T08:19:45.597Z,118.27
2022-09-26T08:22:17.190Z,119.00
2022-09-26T08:24:49.640Z,118.70
2022-09-26T08:27:22.977Z,118.70
2022-09-26T08:29:51.496Z,117.97
2022-09-26T08:32:20.551Z,118.60
2022-09-26T08:34:47.648Z,119.30
2022-09-26T08:37:37.954Z,119.87
2022-09-26T08:40:56.983Z,119.40
2022-09-26T08:44:06.316Z,119.20
2022-09-26T08:47:21.483Z,119.10
2022-09-26T08:50:20.951Z,119.33
2022-09-26T08:53:02.647Z,119.33
2022-09-26T08:55:42.874Z,120.07
2022-09-26T08:58:16.811Z,119.43
2022-09-26T09:00:46.271Z,119.40
2022-09-26T09:03:29.693Z,118.67
2022-09-26T09:06:07.211Z,119.30
2022-09-26T09:08:50.631Z,119.53
2022-09-26T09:11:54.755Z,119.43
2022-09-26T09:14:32.467Z,119.40
2022-09-26T09:17:34.453Z,119.67
2022-09-26T09:20:58.695Z,119.60
2022-09-26T09:23:53.020Z,118.23
2022-09-26T09:30:18.812Z,118.00
2022-09-26T09:33:25.023Z,116.57
2022-09-26T09:36:25.853Z,117.20
2022-09-26T09:39:13.931Z,116.77
2022-09-26T09:42:06.031Z,117.70
2022-09-26T09:44:59.632Z,117.70
2022-09-26T09:47:29.218Z,118.37
2022-09-26T09:50:00.251Z,118.50
2022-09-26T09:52:48.687Z,118.60
2022-09-26T09:56:26.907Z,118.90
2022-09-26T09:59:13.915Z,119.00
2022-09-26T10:02:44.138Z,119.00
2022-09-26T10:05:51.746Z,118.50
2022-09-26T10:08:36.931Z,118.10
2022-09-26T10:11:42.536Z,118.60
2022-09-26T10:14:58.656Z,118.80
2022-09-26T10:18:24.177Z,118.30
2022-09-26T10:21:17.680Z,118.87
2022-09-26T10:23:50.681Z,118.33
2022-09-26T10:26:38.844Z,118.63
2022-09-26T10:29:24.874Z,117.50
2022-09-26T10:32:00.153Z,117.10
2022-09-26T10:34:35.688Z,117.60
2022-09-26T10:37:25.903Z,117.60
2022-09-26T10:40:21.845Z,117.60
2022-09-26T10:42:50.003Z,118.00
2022-09-26T10:45:27.148Z,117.23
2022-09-26T10:48:18.598Z,116.27
2022-09-26T10:51:07.544Z,117.30
2022-09-26T10:54:09.190Z,118.00
2022-09-26T10:56:45.641Z,117.40
2022-09-26T10:59:19.156Z,116.80
2022-09-26T11:01:51.080Z,117.20
2022-09-26T11:04:41.247Z,117.40
2022-09-26T11:07:34.713Z,116.67
2022-09-26T11:10:27.588Z,114.77
2022-09-26T11:13:26.606Z,115.60
2022-09-26T11:16:19.856Z,115.93
2022-09-26T11:19:08.065Z,114.73
2022-09-26T11:21:48.813Z,116.70
2022-09-26T11:24:37.050Z,117.10
2022-09-26T11:27:43.844Z,117.63
2022-09-26T11:30:22.517Z,117.90
2022-09-26T11:33:00.302Z,117.73
2022-09-26T11:36:16.609Z,117.90
2022-09-26T11:39:36.585Z,118.57
2022-09-26T11:42:30.338Z,118.33
2022-09-26T11:45:04.538Z,118.67
2022-09-26T11:48:02.361Z,118.83
2022-09-26T11:51:19.777Z,118.40
2022-09-26T11:54:33.522Z,118.70
2022-09-26T11:57:27.823Z,118.47
2022-09-26T12:00:24.173Z,118.07
2022-09-26T12:03:27.657Z,117.37
2022-09-26T12:06:16.099Z,117.20
2022-09-26T12:09:05.470Z,117.17
2022-09-26T12:12:15.158Z,117.60
2022-09-26T12:15:48.153Z,118.17
2022-09-26T12:19:05.139Z,117.97
2022-09-26T12:22:27.986Z,118.10
2022-09-26T12:25:20.458Z,117.17
2022-09-26T12:28:12.827Z,117.37
2022-09-26T12:30:58.578Z,115.27
2022-09-26T12:34:18.692Z,116.37
2022-09-26T12:37:11.312Z,116.67
2022-09-26T12:39:58.759Z,115.87
2022-09-26T12:42:52.305Z,116.00
2022-09-26T12:45:29.259Z,116.57
2022-09-26T12:48:31.099Z,114.10
2022-09-26T12:51:06.327Z,116.50
2022-09-26T12:54:18.214Z,116.40
2022-09-26T12:56:58.883Z,116.50
2022-09-26T12:59:58.071Z,116.83
2022-09-26T13:03:16.155Z,115.07
2022-09-26T13:06:13.427Z,115.90
2022-09-26T13:09:12.804Z,116.53
2022-09-26T13:12:30.293Z,115.53
2022-09-26T13:15:31.413Z,115.17
2022-09-26T13:18:16.149Z,115.77
2022-09-26T13:20:53.214Z,117.17
2022-09-26T13:23:34.828Z,117.43
2022-09-26T13:26:15.072Z,116.10
2022-09-26T13:29:23.559Z,117.13
2022-09-26T13:32:12.409Z,116.20
2022-09-26T13:35:02.787Z,116.10
2022-09-26T13:38:16.237Z,116.70
2022-09-26T13:40:53.519Z,117.20
2022-09-26T13:43:43.701Z,117.27
2022-09-26T13:46:36.075Z,117.00
2022-09-26T13:49:50.816Z,116.50
2022-09-26T13:52:52.235Z,117.07
2022-09-26T13:55:21.763Z,116.30
2022-09-26T13:58:03.484Z,116.80
2022-09-26T14:00:31.119Z,116.97
2022-09-26T14:03:10.740Z,117.17
2022-09-26T14:05:44.278Z,117.30
2022-09-26T14:08:51.892Z,117.87
2022-09-26T14:11:51.338Z,117.23
2022-09-26T14:14:26.376Z,116.97
2022-09-26T14:17:52.867Z,116.00
2022-09-26T14:20:29.649Z,116.93
2022-09-26T14:22:58.334Z,117.37
2022-09-26T14:26:11.974Z,117.80
2022-09-26T14:28:47.870Z,118.33
2022-09-26T14:31:36.970Z,118.80
2022-09-26T14:34:15.508Z,118.80
2022-09-26T14:36:45.657Z,118.50
2022-09-26T14:39:39.601Z,118.97
2022-09-26T14:42:18.623Z,118.90
2022-09-26T14:44:58.856Z,119.27
2022-09-26T14:47:30.788Z,119.20
2022-09-26T14:50:14.396Z,119.10
2022-09-26T14:52:50.326Z,118.80
2022-09-26T14:55:19.097Z,119.20
2022-09-26T14:57:48.327Z,119.00
2022-09-26T15:00:40.474Z,119.27
2022-09-26T15:03:14.841Z,119.20
2022-09-26T15:05:43.982Z,119.57
2022-09-26T15:08:32.419Z,118.80
2022-09-26T15:11:02.474Z,118.93
2022-09-26T15:13:44.783Z,118.77
2022-09-26T15:16:27.131Z,118.47
2022-09-26T15:19:22.493Z,118.20
2022-09-26T15:22:00.031Z,118.10
2022-09-26T15:24:33.124Z,117.90
2022-09-26T15:27:18.572Z,117.30
2022-09-26T15:29:55.193Z,117.33
2022-09-26T15:32:32.468Z,117.70
2022-09-26T15:35:03.395Z,118.20
2022-09-26T15:37:34.897Z,118.30
2022-09-26T15:40:20.336Z,118.57
2022-09-26T15:43:02.219Z,118.90
2022-09-26T15:45:41.834Z,118.67
2022-09-26T15:48:33.831Z,119.30
2022-09-26T15:51:28.399Z,119.40
2022-09-26T15:54:05.519Z,119.60
2022-09-26T15:56:46.296Z,119.10
2022-09-26T15:59:29.311Z,119.50
2022-09-26T16:01:57.268Z,119.90
2022-09-26T16:04:27.148Z,119.90
2022-09-26T16:07:20.531Z,120.27
2022-09-26T16:09:51.286Z,120.20
2022-09-26T16:12:20.071Z,120.13
2022-09-26T16:14:58.258Z,119.70
2022-09-26T16:17:38.545Z,119.90
2022-09-26T16:20:11.445Z,120.17
2022-09-26T16:22:46.020Z,119.70
2022-09-26T16:25:19.215Z,119.90
2022-09-26T16:28:17.602Z,120.07
2022-09-26T16:31:08.261Z,120.20
2022-09-26T16:33:39.756Z,120.43
2022-09-26T16:36:24.374Z,119.97
2022-09-26T16:39:05.836Z,119.97
2022-09-26T16:42:03.922Z,120.70
2022-09-26T16:44:40.260Z,120.57
2022-09-26T16:47:44.312Z,120.90
2022-09-26T16:50:33.647Z,120.17
2022-09-26T16:53:02.871Z,120.83
2022-09-26T16:55:35.956Z,120.70
2022-09-26T16:58:05.511Z,120.47
2022-09-26T17:00:53.373Z,120.97
2022-09-26T17:03:30.425Z,121.20
2022-09-26T17:06:00.082Z,121.70
2022-09-26T17:08:28.760Z,121.97
2022-09-26T17:11:02.272Z,122.10
2022-09-26T17:13:33.993Z,122.17
2022-09-26T17:16:02.289Z,123.00
2022-09-26T17:18:33.076Z,121.87
2022-09-26T17:21:01.130Z,123.50
2022-09-26T17:23:40.351Z,122.87
2022-09-26T17:26:18.055Z,122.20
2022-09-26T17:28:45.709Z,121.30
2022-09-26T17:31:21.620Z,122.43
2022-09-26T17:33:53.573Z,122.80
2022-09-26T17:36:28.011Z,122.37
2022-09-26T17:38:59.214Z,122.17
2022-09-26T17:41:29.545Z,122.60
2022-09-26T17:44:00.118Z,121.40
2022-09-26T17:46:28.869Z,123.13
2022-09-26T17:48:56.565Z,123.00
2022-09-26T17:51:25.118Z,121.43
2022-09-26T17:53:52.936Z,122.70
2022-09-26T17:56:20.779Z,122.37
2022-09-26T17:58:49.742Z,122.27
2022-09-26T18:01:25.674Z,122.67
2022-09-26T18:04:00.343Z,121.90
2022-09-26T18:06:31.715Z,122.57
2022-09-26T18:09:05.308Z,121.67
2022-09-26T18:11:34.523Z,121.80
2022-09-26T18:14:05.657Z,122.67
2022-09-26T18:16:33.079Z,121.70
2022-09-26T18:19:06.020Z,122.30
2022-09-26T18:21:35.268Z,121.27
2022-09-26T18:24:06.420Z,122.13
2022-09-26T18:26:47.025Z,122.20
2022-09-26T18:29:27.539Z,122.37
2022-09-26T18:31:55.302Z,122.00
2022-09-26T18:34:22.887Z,122.37
2022-09-26T18:36:51.787Z,122.23
2022-09-26T18:39:19.005Z,121.97
2022-09-26T18:41:48.972Z,120.60
2022-09-26T18:44:18.279Z,121.87
2022-09-26T18:46:46.880Z,122.00
2022-09-26T18:49:15.200Z,122.13
2022-09-26T18:51:43.447Z,121.83
2022-09-26T18:54:16.869Z,122.50
2022-09-26T18:57:04.265Z,120.40
2022-09-26T18:59:32.016Z,121.70
2022-09-26T19:02:01.727Z,121.67
2022-09-26T19:04:30.577Z,121.07
2022-09-26T19:07:05.762Z,121.57
2022-09-26T19:09:35.453Z,122.27
2022-09-26T19:12:03.700Z,122.00
2022-09-26T19:14:32.028Z,122.50
2022-09-26T19:16:59.728Z,121.37
2022-09-26T19:19:28.489Z,121.37
2022-09-26T19:22:10.228Z,122.50
2022-09-26T19:24:59.628Z,122.00
2022-09-26T19:27:41.897Z,121.60
2022-09-26T19:30:24.525Z,122.40
2022-09-26T19:32:53.903Z,122.10
2022-09-26T19:35:29.036Z,122.33
2022-09-26T19:37:57.736Z,122.10
2022-09-26T19:40:26.772Z,121.30
2022-09-26T19:42:55.095Z,121.47
2022-09-26T19:45:23.132Z,121.70
2022-09-26T19:47:53.884Z,120.97
2022-09-26T19:50:25.199Z,120.53
2022-09-26T19:52:55.685Z,121.67
2022-09-26T19:55:26.465Z,122.40
2022-09-26T19:58:06.665Z,122.07
2022-09-26T20:00:41.100Z,121.97
2022-09-26T20:03:22.697Z,122.20
2022-09-26T20:05:51.168Z,121.67
2022-09-26T20:08:25.449Z,120.70
2022-09-26T20:10:55.444Z,122.47
2022-09-26T20:13:22.952Z,122.53
2022-09-26T20:15:51.029Z,122.27
2022-09-26T20:18:22.330Z,122.33
2022-09-26T20:20:55.940Z,121.37
2022-09-26T20:23:27.057Z,121.60
2022-09-26T20:25:55.465Z,120.90
2022-09-26T20:28:23.030Z,121.63
2022-09-26T20:30:54.331Z,121.50
2022-09-26T20:33:23.963Z,120.90
2022-09-26T20:36:02.897Z,121.80
2022-09-26T20:38:40.340Z,121.57
2022-09-26T20:41:22.195Z,121.70
2022-09-26T20:43:58.515Z,121.90
2022-09-26T20:46:26.327Z,121.50
2022-09-26T20:48:53.901Z,121.90
2022-09-26T20:51:31.056Z,122.23
2022-09-26T20:54:00.135Z,121.10
2022-09-26T20:56:28.601Z,121.63
2022-09-26T20:58:56.155Z,122.03
2022-09-26T21:01:26.751Z,122.10
2022-09-26T21:03:56.025Z,122.13
2022-09-26T21:06:28.001Z,122.10
2022-09-26T21:08:55.466Z,122.10
2022-09-26T21:11:23.073Z,122.27
2022-09-26T21:13:50.562Z,122.10
2022-09-26T21:16:20.701Z,122.07
2022-09-26T21:18:51.268Z,122.07
2022-09-26T21:21:29.163Z,122.20
2022-09-26T21:24:29.911Z,121.60
2022-09-26T21:26:57.432Z,121.97
2022-09-26T21:29:24.850Z,121.77
2022-09-26T21:31:56.018Z,121.43
2022-09-26T21:34:26.705Z,122.00
2022-09-26T21:36:57.011Z,121.87
2022-09-26T21:39:25.836Z,121.17
2022-09-26T21:41:57.783Z,122.27
2022-09-26T21:44:39.257Z,119.90
2022-09-26T21:47:06.990Z,121.40
2022-09-26T21:49:34.625Z,121.10
2022-09-26T21:52:17.494Z,120.80
2022-09-26T21:54:45.679Z,121.73
2022-09-26T21:57:23.550Z,120.10
2022-09-26T21:59:52.344Z,121.10
2022-09-26T22:02:20.478Z,121.57
2022-09-26T22:04:48.111Z,121.27
2022-09-26T22:07:15.742Z,121.73
2022-09-26T22:09:43.197Z,121.97
2022-09-26T22:12:10.227Z,122.00
2022-09-26T22:14:37.687Z,121.50
2022-09-26T22:17:05.190Z,121.70
2022-09-26T22:19:33.396Z,121.50
2022-09-26T22:22:02.089Z,121.37
2022-09-26T22:24:30.175Z,121.80
2022-09-26T22:26:57.625Z,121.40
2022-09-26T22:29:25.643Z,120.90
2022-09-26T22:31:53.510Z,121.97
2022-09-26T22:34:25.551Z,120.57
2022-09-26T22:36:53.142Z,121.17
2022-09-26T22:39:20.535Z,121.10
2022-09-26T22:41:47.843Z,121.87
2022-09-26T22:44:15.263Z,120.40
2022-09-26T22:46:42.793Z,121.10
2022-09-26T22:49:10.274Z,120.90
2022-09-26T22:51:37.324Z,121.57
2022-09-26T22:54:04.798Z,122.17
2022-09-26T22:56:32.267Z,121.87
2022-09-26T22:58:59.727Z,119.27
2022-09-26T23:01:28.357Z,121.50
2022-09-26T23:04:00.253Z,121.30
2022-09-26T23:06:28.535Z,121.43
2022-09-26T23:08:56.188Z,120.97
2022-09-26T23:11:24.177Z,121.63
2022-09-26T23:13:53.137Z,120.80
2022-09-26T23:16:23.679Z,122.10
2022-09-26T23:18:51.709Z,121.57
2022-09-26T23:21:25.968Z,121.40
2022-09-26T23:23:57.101Z,120.57
2022-09-26T23:26:27.583Z,120.67
2022-09-26T23:28:57.976Z,121.77
2022-09-26T23:31:27.870Z,121.37
2022-09-26T23:33:56.223Z,121.47
2022-09-26T23:36:24.197Z,122.17
2022-09-26T23:38:51.940Z,121.50
2022-09-26T23:41:18.897Z,122.10
2022-09-26T23:43:46.540Z,121.67
2022-09-26T23:46:14.217Z,120.47
2022-09-26T23:48:42.216Z,121.30
2022-09-26T23:51:09.998Z,122.27
2022-09-26T23:53:37.664Z,121.23
2022-09-26T23:56:08.297Z,121.30
2022-09-26T23:58:36.933Z,119.10
